createdAt,value
2023-01-31T00:01:35.472Z,5.90
2023-01-31T00:04:24.428Z,5.50
2023-01-31T00:07:13.090Z,5.60
2023-01-31T00:10:01.950Z,6.50
2023-01-31T00:12:51.007Z,6.10
2023-01-31T00:15:40.062Z,6.80
2023-01-31T00:18:29.093Z,6.50
2023-01-31T00:21:20.229Z,5.60
2023-01-31T00:24:09.004Z,6.10
2023-01-31T00:26:57.892Z,6.70
2023-01-31T00:29:47.918Z,6.10
2023-01-31T00:32:38.028Z,5.80
2023-01-31T00:35:26.936Z,5.20
2023-01-31T00:38:16.063Z,5.80
2023-01-31T00:41:05.354Z,5.70
2023-01-31T00:43:55.541Z,5.90
2023-01-31T00:46:44.303Z,5.40
2023-01-31T00:49:33.125Z,5.50
2023-01-31T00:52:22.067Z,5.70
2023-01-31T00:55:10.792Z,7.00
2023-01-31T00:57:59.519Z,5.90
2023-01-31T01:00:48.460Z,6.30
2023-01-31T01:03:37.467Z,6.80
2023-01-31T01:06:29.190Z,5.80
2023-01-31T01:09:18.401Z,5.70
2023-01-31T01:12:07.096Z,6.20
2023-01-31T01:14:57.771Z,7.30
2023-01-31T01:17:47.489Z,7.00
2023-01-31T01:20:36.668Z,5.60
2023-01-31T01:23:25.313Z,5.80
2023-01-31T01:26:15.423Z,5.60
2023-01-31T01:29:04.763Z,6.00
2023-01-31T01:31:53.580Z,6.20
2023-01-31T01:34:42.359Z,7.20
2023-01-31T01:37:31.387Z,6.80
2023-01-31T01:40:20.212Z,6.20
2023-01-31T01:43:11.669Z,5.80
2023-01-31T01:46:01.398Z,4.90
2023-01-31T01:48:51.734Z,6.20
2023-01-31T01:51:40.404Z,5.30
2023-01-31T01:54:34.451Z,6.40
2023-01-31T01:57:29.175Z,6.20
2023-01-31T02:00:23.346Z,5.50
2023-01-31T02:03:13.953Z,6.10
2023-01-31T02:06:04.332Z,5.60
2023-01-31T02:08:53.100Z,5.40
2023-01-31T02:11:42.071Z,5.90
2023-01-31T02:14:30.940Z,6.60
2023-01-31T02:17:19.771Z,6.50
2023-01-31T02:20:14.225Z,6.10
2023-01-31T02:23:06.056Z,6.90
2023-01-31T02:25:57.447Z,6.20
2023-01-31T02:29:13.995Z,6.70
2023-01-31T02:32:18.075Z,6.10
2023-01-31T02:35:09.928Z,5.90
2023-01-31T02:38:11.162Z,6.60
2023-01-31T02:41:13.024Z,6.50
2023-01-31T02:44:50.836Z,6.00
2023-01-31T02:47:45.709Z,6.90
2023-01-31T02:50:45.217Z,6.50
2023-01-31T02:53:46.804Z,6.60
2023-01-31T02:56:36.791Z,6.20
2023-01-31T02:59:32.023Z,6.40
2023-01-31T03:02:20.765Z,7.00
2023-01-31T03:05:14.485Z,6.20
2023-01-31T03:08:05.311Z,5.90
2023-01-31T03:11:05.230Z,5.70
2023-01-31T03:14:07.599Z,6.00
2023-01-31T03:17:33.070Z,6.30
2023-01-31T03:20:36.502Z,6.10
2023-01-31T03:23:29.536Z,5.30
2023-01-31T03:29:11.461Z,6.70
2023-01-31T03:32:25.234Z,6.30
2023-01-31T03:35:14.352Z,5.90
2023-01-31T03:38:11.933Z,7.30
2023-01-31T03:41:14.204Z,6.30
2023-01-31T03:44:06.941Z,6.00
2023-01-31T03:46:59.453Z,7.50
2023-01-31T03:49:48.361Z,7.20
2023-01-31T03:52:38.943Z,6.40
2023-01-31T03:55:32.422Z,7.00
2023-01-31T03:58:22.888Z,7.10
2023-01-31T04:01:11.701Z,7.20
2023-01-31T04:04:12.480Z,5.80
2023-01-31T04:07:01.521Z,6.70
2023-01-31T04:09:50.470Z,7.10
2023-01-31T04:12:39.483Z,5.50
2023-01-31T04:15:28.106Z,6.70
2023-01-31T04:18:17.749Z,6.60
2023-01-31T04:21:06.727Z,6.80
2023-01-31T04:23:55.548Z,7.50
2023-01-31T04:26:44.299Z,6.80
2023-01-31T04:29:33.614Z,6.40
2023-01-31T04:32:25.283Z,5.60
2023-01-31T04:35:14.300Z,6.30
2023-01-31T04:38:03.359Z,6.70
2023-01-31T04:40:54.623Z,6.50
2023-01-31T04:43:43.345Z,6.70
2023-01-31T04:46:32.180Z,7.50
2023-01-31T04:49:21.703Z,7.00
2023-01-31T04:52:11.113Z,6.80
2023-01-31T04:55:00.143Z,7.00
2023-01-31T04:57:48.801Z,6.10
2023-01-31T05:00:37.887Z,6.40
2023-01-31T05:03:26.776Z,6.40
2023-01-31T05:06:15.468Z,6.40
2023-01-31T05:09:04.407Z,5.90
2023-01-31T05:11:53.171Z,5.80
2023-01-31T05:14:42.364Z,6.50
2023-01-31T05:17:31.568Z,6.30
2023-01-31T05:20:21.157Z,6.90
2023-01-31T05:23:10.746Z,7.50
2023-01-31T05:25:59.713Z,7.00
2023-01-31T05:28:48.599Z,6.50
2023-01-31T05:31:37.396Z,7.50
2023-01-31T05:34:26.741Z,8.40
2023-01-31T05:37:15.520Z,6.70
2023-01-31T05:40:04.570Z,7.10
2023-01-31T05:42:57.223Z,7.30
2023-01-31T05:48:37.010Z,6.90
2023-01-31T05:51:25.898Z,7.10
2023-01-31T05:54:14.648Z,6.50
2023-01-31T05:57:03.294Z,7.00
2023-01-31T05:59:51.969Z,7.20
2023-01-31T06:02:41.798Z,7.20
2023-01-31T06:05:31.381Z,7.50
2023-01-31T06:08:20.546Z,7.30
2023-01-31T06:11:11.177Z,6.90
2023-01-31T06:14:01.797Z,7.70
2023-01-31T06:16:50.976Z,7.90
2023-01-31T06:19:39.732Z,8.00
2023-01-31T06:22:28.663Z,7.90
2023-01-31T06:25:17.487Z,8.00
2023-01-31T06:28:07.515Z,8.10
2023-01-31T06:30:56.811Z,7.40
2023-01-31T06:33:47.989Z,8.50
2023-01-31T06:36:37.723Z,7.60
2023-01-31T06:39:26.908Z,8.20
2023-01-31T06:42:15.587Z,8.20
2023-01-31T06:45:04.589Z,6.40
2023-01-31T06:47:53.284Z,7.40
2023-01-31T06:50:42.426Z,7.80
2023-01-31T06:53:31.982Z,7.40
2023-01-31T06:56:21.099Z,9.30
2023-01-31T06:59:09.866Z,8.00
2023-01-31T07:01:58.729Z,7.40
2023-01-31T07:04:47.443Z,8.00
2023-01-31T07:07:39.774Z,8.10
2023-01-31T07:10:28.442Z,7.10
2023-01-31T07:13:17.197Z,8.20
2023-01-31T07:16:06.108Z,7.90
2023-01-31T07:18:55.304Z,7.90
2023-01-31T07:21:44.509Z,7.40
2023-01-31T07:24:33.530Z,8.60
2023-01-31T07:27:22.224Z,8.20
2023-01-31T07:30:11.660Z,9.10
2023-01-31T07:33:00.520Z,8.00
2023-01-31T07:35:49.674Z,8.10
2023-01-31T07:38:38.410Z,8.60
2023-01-31T07:41:27.135Z,8.00
2023-01-31T07:44:15.953Z,8.80
2023-01-31T07:47:04.614Z,8.00
2023-01-31T07:49:55.202Z,8.80
2023-01-31T07:52:44.401Z,8.60
2023-01-31T07:55:33.121Z,8.60
2023-01-31T07:58:21.810Z,9.40
2023-01-31T08:01:50.839Z,8.70
2023-01-31T08:04:39.805Z,9.00
2023-01-31T08:07:29.488Z,9.00
2023-01-31T08:10:18.153Z,9.70
2023-01-31T08:13:07.345Z,10.10
2023-01-31T08:15:56.104Z,8.90
2023-01-31T08:18:45.450Z,8.90
2023-01-31T08:21:34.227Z,9.60
2023-01-31T08:24:23.331Z,9.10
2023-01-31T08:27:11.997Z,10.00
2023-01-31T08:30:00.759Z,9.70
2023-01-31T08:32:49.564Z,8.50
2023-01-31T08:35:38.864Z,10.00
2023-01-31T08:38:27.549Z,10.70
2023-01-31T08:41:17.863Z,9.80
2023-01-31T08:44:06.790Z,9.00
2023-01-31T08:46:55.413Z,8.90
2023-01-31T08:49:44.282Z,10.40
2023-01-31T08:52:35.516Z,9.60
2023-01-31T08:55:25.243Z,6.80
2023-01-31T08:58:13.955Z,8.70
2023-01-31T09:01:06.451Z,8.30
2023-01-31T09:03:57.311Z,9.10
2023-01-31T09:06:46.375Z,9.00
2023-01-31T09:09:35.335Z,8.50
2023-01-31T09:12:24.140Z,9.60
2023-01-31T09:15:13.205Z,9.80
2023-01-31T09:18:02.030Z,8.80
2023-01-31T09:20:50.634Z,9.10
2023-01-31T09:23:42.234Z,8.70
2023-01-31T09:29:21.043Z,9.30
2023-01-31T09:32:09.786Z,8.30
2023-01-31T09:34:59.071Z,8.70
2023-01-31T09:37:47.987Z,9.20
2023-01-31T09:40:40.010Z,9.20
2023-01-31T09:43:33.458Z,10.00
2023-01-31T09:46:25.379Z,8.70
2023-01-31T09:49:22.792Z,10.40
2023-01-31T09:52:11.578Z,10.10
2023-01-31T09:55:00.247Z,8.80
2023-01-31T09:57:55.810Z,9.60
2023-01-31T10:00:55.193Z,9.20
2023-01-31T12:10:42.452Z,10.20
2023-01-31T12:13:32.244Z,11.60
2023-01-31T12:16:22.939Z,12.30
2023-01-31T12:19:11.938Z,10.50
2023-01-31T12:22:16.117Z,11.20
2023-01-31T12:25:12.410Z,10.50
2023-01-31T12:28:37.989Z,12.10
2023-01-31T12:31:38.859Z,10.00
2023-01-31T12:35:01.396Z,10.30
2023-01-31T12:38:26.665Z,11.30
2023-01-31T12:41:36.909Z,10.10
2023-01-31T12:44:40.838Z,10.20
2023-01-31T12:47:55.517Z,9.40
2023-01-31T12:50:52.808Z,10.10
2023-01-31T12:53:50.205Z,11.20
2023-01-31T12:56:46.893Z,10.50
2023-01-31T12:59:44.636Z,10.20
2023-01-31T13:02:39.969Z,12.40
2023-01-31T13:05:34.673Z,10.90
2023-01-31T13:08:28.626Z,11.20
2023-01-31T13:11:30.862Z,10.80
2023-01-31T13:14:24.522Z,8.20
2023-01-31T13:17:14.763Z,10.90
2023-01-31T13:20:31.221Z,12.30
2023-01-31T13:23:24.595Z,9.60
2023-01-31T13:26:21.616Z,10.50
2023-01-31T13:29:14.253Z,10.60
2023-01-31T13:32:39.143Z,11.60
2023-01-31T13:35:32.732Z,11.20
2023-01-31T13:38:21.663Z,10.10
2023-01-31T13:41:33.366Z,11.20
2023-01-31T13:44:22.163Z,10.80
2023-01-31T13:47:18.696Z,11.10
2023-01-31T13:50:18.763Z,10.40
2023-01-31T13:53:12.460Z,10.90
2023-01-31T13:56:01.450Z,10.00
2023-01-31T13:58:50.489Z,10.10
2023-01-31T14:01:48.854Z,12.10
2023-01-31T14:04:40.271Z,10.30
2023-01-31T14:07:29.678Z,11.10
2023-01-31T14:10:18.317Z,9.70
2023-01-31T14:13:27.663Z,10.90
2023-01-31T14:16:31.979Z,10.00
2023-01-31T14:19:23.337Z,11.60
2023-01-31T14:25:11.085Z,11.20
2023-01-31T14:28:01.663Z,10.90
2023-01-31T14:30:50.490Z,11.30
2023-01-31T14:33:39.293Z,10.50
2023-01-31T14:36:33.740Z,11.20
2023-01-31T14:39:50.424Z,11.10
2023-01-31T14:43:10.585Z,10.40
2023-01-31T14:46:22.402Z,12.00
2023-01-31T14:49:32.541Z,11.70
2023-01-31T14:53:05.835Z,11.90
2023-01-31T14:56:09.680Z,12.80
2023-01-31T14:58:58.445Z,11.30
2023-01-31T15:01:47.183Z,11.50
2023-01-31T15:04:35.890Z,13.40
2023-01-31T15:07:25.212Z,15.40
2023-01-31T15:10:52.360Z,14.40
2023-01-31T15:13:44.396Z,14.00
2023-01-31T15:16:33.765Z,20.20
2023-01-31T15:19:24.491Z,13.30
2023-01-31T15:22:13.275Z,13.60
2023-01-31T15:25:07.807Z,15.80
2023-01-31T15:27:56.853Z,13.20
2023-01-31T15:30:45.816Z,13.70
2023-01-31T15:33:51.012Z,13.50
2023-01-31T15:36:46.024Z,14.30
2023-01-31T15:39:44.518Z,14.70
2023-01-31T15:42:34.039Z,13.70
2023-01-31T15:45:29.949Z,14.30
2023-01-31T15:48:20.155Z,13.50
2023-01-31T15:51:14.942Z,13.90
2023-01-31T15:54:06.225Z,13.50
2023-01-31T15:56:54.992Z,14.20
2023-01-31T15:59:44.900Z,13.60
2023-01-31T18:06:19.112Z,17.60
2023-01-31T18:09:11.076Z,21.90
2023-01-31T18:12:00.422Z,24.50
2023-01-31T18:14:49.227Z,19.80
2023-01-31T18:17:39.097Z,17.00
2023-01-31T18:20:28.713Z,15.40
2023-01-31T18:23:17.331Z,15.10
2023-01-31T18:26:07.060Z,15.70
2023-01-31T18:28:57.616Z,13.80
2023-01-31T18:31:47.758Z,15.00
2023-01-31T18:34:40.393Z,15.00
2023-01-31T18:37:29.963Z,15.00
2023-01-31T18:40:19.042Z,15.10
2023-01-31T18:43:09.036Z,13.30
2023-01-31T18:45:57.973Z,13.90
2023-01-31T18:48:47.403Z,15.90
2023-01-31T18:51:39.415Z,15.20
2023-01-31T18:54:28.342Z,16.30
2023-01-31T18:57:17.119Z,14.20
2023-01-31T19:00:06.930Z,14.70
2023-01-31T19:02:55.876Z,15.20
2023-01-31T19:05:44.824Z,14.60
2023-01-31T19:08:33.960Z,15.50
2023-01-31T19:11:24.775Z,16.30
2023-01-31T19:14:14.009Z,15.00
2023-01-31T19:17:03.009Z,14.50
2023-01-31T19:19:52.066Z,13.00
2023-01-31T19:22:41.124Z,14.00
2023-01-31T19:25:29.916Z,13.20
2023-01-31T19:28:22.965Z,14.80
2023-01-31T19:31:16.445Z,12.80
2023-01-31T19:34:06.433Z,14.30
2023-01-31T19:36:55.474Z,13.20
2023-01-31T19:39:44.601Z,13.80
2023-01-31T19:42:33.732Z,14.10
2023-01-31T19:45:23.291Z,13.90
2023-01-31T19:48:12.319Z,14.00
2023-01-31T19:51:06.652Z,14.10
2023-01-31T19:53:59.249Z,14.20
2023-01-31T19:56:48.051Z,14.30
2023-01-31T19:59:37.501Z,14.80
2023-01-31T20:02:26.698Z,14.00
2023-01-31T20:05:16.136Z,12.80
2023-01-31T20:08:05.507Z,12.30
2023-01-31T20:10:55.231Z,13.20
2023-01-31T20:13:45.244Z,12.90
2023-01-31T20:16:33.942Z,13.30
2023-01-31T20:19:23.003Z,13.10
2023-01-31T20:22:12.408Z,14.10
2023-01-31T20:25:01.458Z,15.30
2023-01-31T20:27:50.230Z,14.00
2023-01-31T20:30:39.253Z,14.30
2023-01-31T20:33:28.146Z,14.30
2023-01-31T20:36:17.067Z,14.70
2023-01-31T20:39:06.577Z,14.20
2023-01-31T20:41:57.076Z,12.90
2023-01-31T20:44:46.571Z,13.80
2023-01-31T20:47:35.642Z,13.90
2023-01-31T20:50:25.487Z,15.30
2023-01-31T20:53:18.719Z,14.80
2023-01-31T20:56:09.997Z,13.70
2023-01-31T20:58:59.427Z,12.20
2023-01-31T21:01:48.061Z,12.60
2023-01-31T21:04:36.928Z,13.50
2023-01-31T21:07:25.946Z,13.10
2023-01-31T21:10:15.378Z,13.30
2023-01-31T21:13:04.513Z,11.80
2023-01-31T21:15:54.049Z,13.00
2023-01-31T21:18:46.052Z,12.30
2023-01-31T21:21:35.206Z,12.70
2023-01-31T21:24:23.987Z,12.30
2023-01-31T21:27:31.066Z,13.00
2023-01-31T21:30:20.089Z,12.40
2023-01-31T21:33:08.942Z,13.30
2023-01-31T21:35:58.385Z,12.40
2023-01-31T21:38:47.469Z,12.90
2023-01-31T21:41:55.000Z,13.30
2023-01-31T21:44:44.563Z,11.70
2023-01-31T21:47:33.513Z,11.50
2023-01-31T21:50:24.762Z,13.00
2023-01-31T21:53:15.178Z,12.30
2023-01-31T21:56:06.802Z,12.50
2023-01-31T21:58:55.800Z,11.10
2023-01-31T22:01:44.886Z,12.50
2023-01-31T22:04:33.732Z,12.90
2023-01-31T22:07:22.995Z,12.20
2023-01-31T22:10:11.795Z,11.30
2023-01-31T22:13:00.919Z,13.50
2023-01-31T22:15:49.780Z,11.50
2023-01-31T22:18:38.987Z,12.40
2023-01-31T22:21:36.014Z,13.50
2023-01-31T22:24:24.805Z,12.50
2023-01-31T22:27:13.652Z,12.00
2023-01-31T22:30:14.983Z,11.00
2023-01-31T22:33:04.790Z,12.10
2023-01-31T22:35:54.757Z,12.00
2023-01-31T22:38:44.164Z,10.80
2023-01-31T22:41:33.826Z,12.60
2023-01-31T22:44:23.470Z,10.70
2023-01-31T22:47:13.617Z,12.20
2023-01-31T22:50:02.385Z,11.40
2023-01-31T22:52:51.126Z,11.00
2023-01-31T22:55:40.718Z,12.00
2023-01-31T22:58:29.666Z,10.60
2023-01-31T23:01:21.869Z,11.40
2023-01-31T23:04:10.612Z,11.10
2023-01-31T23:06:59.835Z,12.70
2023-01-31T23:09:48.936Z,12.60
2023-01-31T23:12:42.577Z,12.10
2023-01-31T23:15:31.855Z,11.90
2023-01-31T23:18:30.961Z,11.90
2023-01-31T23:21:20.158Z,12.40
2023-01-31T23:24:09.448Z,11.80
2023-01-31T23:26:58.189Z,10.90
2023-01-31T23:29:47.065Z,12.30
2023-01-31T23:32:35.753Z,12.10
2023-01-31T23:35:26.864Z,12.60
2023-01-31T23:38:15.815Z,12.10
2023-01-31T23:41:04.757Z,13.60
2023-01-31T23:43:53.756Z,12.70
2023-01-31T23:46:42.741Z,11.50
2023-01-31T23:49:31.543Z,12.10
2023-01-31T23:52:20.322Z,12.40
2023-01-31T23:55:09.281Z,11.40
2023-01-31T23:57:58.008Z,11.00
